sensor_id;sensor_type;location;lat;lon;timestamp;temperature;humidity
18906;DHT22;9585;51.018;4.282;2022-11-23T00:00:44;8.00;99.90
18906;DHT22;9585;51.018;4.282;2022-11-23T00:03:13;8.00;99.90
18906;DHT22;9585;51.018;4.282;2022-11-23T00:05:41;8.00;99.90
18906;DHT22;9585;51.018;4.282;2022-11-23T00:08:08;8.10;99.90
18906;DHT22;9585;51.018;4.282;2022-11-23T00:10:41;8.10;99.90
18906;DHT22;9585;51.018;4.282;2022-11-23T00:13:12;8.10;99.90
18906;DHT22;9585;51.018;4.282;2022-11-23T00:15:46;8.10;99.90
18906;DHT22;9585;51.018;4.282;2022-11-23T00:18:14;8.10;99.90
18906;DHT22;9585;51.018;4.282;2022-11-23T00:20:44;8.10;99.90
18906;DHT22;9585;51.018;4.282;2022-11-23T00:23:15;8.10;99.90
18906;DHT22;9585;51.018;4.282;2022-11-23T00:25:45;8.10;99.90
18906;DHT22;9585;51.018;4.282;2022-11-23T00:28:12;8.10;99.90
18906;DHT22;9585;51.018;4.282;2022-11-23T00:30:39;8.00;99.90
18906;DHT22;9585;51.018;4.282;2022-11-23T00:33:08;8.00;99.90
18906;DHT22;9585;51.018;4.282;2022-11-23T00:35:35;8.00;99.90
18906;DHT22;9585;51.018;4.282;2022-11-23T00:38:05;8.00;99.90
18906;DHT22;9585;51.018;4.282;2022-11-23T00:40:32;8.00;99.90
18906;DHT22;9585;51.018;4.282;2022-11-23T00:43:01;8.00;99.90
18906;DHT22;9585;51.018;4.282;2022-11-23T00:45:29;7.90;99.90
18906;DHT22;9585;51.018;4.282;2022-11-23T00:47:56;7.90;99.90
18906;DHT22;9585;51.018;4.282;2022-11-23T00:50:23;7.90;99.90
18906;DHT22;9585;51.018;4.282;2022-11-23T00:52:51;7.90;99.90
18906;DHT22;9585;51.018;4.282;2022-11-23T00:55:18;7.90;99.90
18906;DHT22;9585;51.018;4.282;2022-11-23T00:57:45;8.00;99.90
18906;DHT22;9585;51.018;4.282;2022-11-23T01:00:15;8.00;99.90
18906;DHT22;9585;51.018;4.282;2022-11-23T01:02:42;8.00;99.90
18906;DHT22;9585;51.018;4.282;2022-11-23T01:05:09;7.90;99.90
18906;DHT22;9585;51.018;4.282;2022-11-23T01:07:37;7.90;99.90
18906;DHT22;9585;51.018;4.282;2022-11-23T01:10:05;7.80;99.90
18906;DHT22;9585;51.018;4.282;2022-11-23T01:12:33;7.80;99.90
18906;DHT22;9585;51.018;4.282;2022-11-23T01:15:00;7.80;99.90
18906;DHT22;9585;51.018;4.282;2022-11-23T01:17:29;7.80;99.90
18906;DHT22;9585;51.018;4.282;2022-11-23T01:19:56;7.80;99.90
18906;DHT22;9585;51.018;4.282;2022-11-23T01:22:24;7.80;99.90
18906;DHT22;9585;51.018;4.282;2022-11-23T01:24:53;7.80;99.90
18906;DHT22;9585;51.018;4.282;2022-11-23T01:27:21;7.80;99.90
18906;DHT22;9585;51.018;4.282;2022-11-23T01:29:48;7.80;99.90
18906;DHT22;9585;51.018;4.282;2022-11-23T01:32:15;7.90;99.90
18906;DHT22;9585;51.018;4.282;2022-11-23T01:34:44;7.90;99.90
18906;DHT22;9585;51.018;4.282;2022-11-23T01:37:11;8.00;99.90
18906;DHT22;9585;51.018;4.282;2022-11-23T01:39:38;7.90;99.90
18906;DHT22;9585;51.018;4.282;2022-11-23T01:42:05;8.00;99.90
18906;DHT22;9585;51.018;4.282;2022-11-23T01:44:35;8.00;99.90
18906;DHT22;9585;51.018;4.282;2022-11-23T01:47:05;8.00;99.90
18906;DHT22;9585;51.018;4.282;2022-11-23T01:49:36;8.00;99.90
18906;DHT22;9585;51.018;4.282;2022-11-23T01:52:10;8.10;99.90
18906;DHT22;9585;51.018;4.282;2022-11-23T01:54:44;8.00;99.90
18906;DHT22;9585;51.018;4.282;2022-11-23T01:57:15;8.00;99.90
18906;DHT22;9585;51.018;4.282;2022-11-23T01:59:45;8.00;99.90
18906;DHT22;9585;51.018;4.282;2022-11-23T02:02:15;8.00;99.90
18906;DHT22;9585;51.018;4.282;2022-11-23T02:04:46;8.00;99.90
18906;DHT22;9585;51.018;4.282;2022-11-23T02:07:18;8.10;99.90
18906;DHT22;9585;51.018;4.282;2022-11-23T02:09:46;8.00;99.90
18906;DHT22;9585;51.018;4.282;2022-11-23T02:12:14;8.00;99.90
18906;DHT22;9585;51.018;4.282;2022-11-23T02:14:42;8.00;99.90
18906;DHT22;9585;51.018;4.282;2022-11-23T02:17:10;7.90;99.90
18906;DHT22;9585;51.018;4.282;2022-11-23T02:19:44;8.00;99.90
18906;DHT22;9585;51.018;4.282;2022-11-23T02:22:19;8.00;99.90
18906;DHT22;9585;51.018;4.282;2022-11-23T02:24:53;8.00;99.90
18906;DHT22;9585;51.018;4.282;2022-11-23T02:27:22;8.00;99.90
18906;DHT22;9585;51.018;4.282;2022-11-23T02:29:50;8.10;99.90
18906;DHT22;9585;51.018;4.282;2022-11-23T02:32:22;8.00;99.90
18906;DHT22;9585;51.018;4.282;2022-11-23T02:34:49;8.00;99.90
18906;DHT22;9585;51.018;4.282;2022-11-23T02:37:17;7.90;99.90
18906;DHT22;9585;51.018;4.282;2022-11-23T02:39:47;7.80;99.90
18906;DHT22;9585;51.018;4.282;2022-11-23T02:42:15;7.70;99.90
18906;DHT22;9585;51.018;4.282;2022-11-23T02:44:50;7.70;99.90
18906;DHT22;9585;51.018;4.282;2022-11-23T02:47:19;7.70;99.90
18906;DHT22;9585;51.018;4.282;2022-11-23T02:49:50;7.60;99.90
18906;DHT22;9585;51.018;4.282;2022-11-23T02:52:17;7.70;99.90
18906;DHT22;9585;51.018;4.282;2022-11-23T02:54:45;7.60;99.90
18906;DHT22;9585;51.018;4.282;2022-11-23T02:57:13;7.50;99.90
18906;DHT22;9585;51.018;4.282;2022-11-23T02:59:40;7.50;99.90
18906;DHT22;9585;51.018;4.282;2022-11-23T03:02:09;7.50;99.90
18906;DHT22;9585;51.018;4.282;2022-11-23T03:04:36;7.50;99.90
18906;DHT22;9585;51.018;4.282;2022-11-23T03:07:03;7.40;99.90
18906;DHT22;9585;51.018;4.282;2022-11-23T03:09:31;7.30;99.90
18906;DHT22;9585;51.018;4.282;2022-11-23T03:11:58;7.30;99.90
18906;DHT22;9585;51.018;4.282;2022-11-23T03:14:25;7.40;99.90
18906;DHT22;9585;51.018;4.282;2022-11-23T03:16:53;7.40;99.90
18906;DHT22;9585;51.018;4.282;2022-11-23T03:19:22;7.40;99.90
18906;DHT22;9585;51.018;4.282;2022-11-23T03:21:49;7.50;99.90
18906;DHT22;9585;51.018;4.282;2022-11-23T03:24:16;7.40;99.90
18906;DHT22;9585;51.018;4.282;2022-11-23T03:26:43;7.50;99.90
18906;DHT22;9585;51.018;4.282;2022-11-23T03:29:11;7.50;99.90
18906;DHT22;9585;51.018;4.282;2022-11-23T03:31:39;7.60;99.90
18906;DHT22;9585;51.018;4.282;2022-11-23T03:34:06;7.60;99.90
18906;DHT22;9585;51.018;4.282;2022-11-23T03:36:37;7.60;99.90
18906;DHT22;9585;51.018;4.282;2022-11-23T03:39:05;7.60;99.90
18906;DHT22;9585;51.018;4.282;2022-11-23T03:41:32;7.60;99.90
18906;DHT22;9585;51.018;4.282;2022-11-23T03:44:00;7.60;99.90
18906;DHT22;9585;51.018;4.282;2022-11-23T03:46:27;7.70;99.90
18906;DHT22;9585;51.018;4.282;2022-11-23T03:48:55;7.70;99.90
18906;DHT22;9585;51.018;4.282;2022-11-23T03:51:24;7.60;99.90
18906;DHT22;9585;51.018;4.282;2022-11-23T03:53:53;7.70;99.90
18906;DHT22;9585;51.018;4.282;2022-11-23T03:56:21;7.70;99.90
18906;DHT22;9585;51.018;4.282;2022-11-23T03:58:48;7.70;99.90
18906;DHT22;9585;51.018;4.282;2022-11-23T04:01:15;7.70;99.90
18906;DHT22;9585;51.018;4.282;2022-11-23T04:03:42;7.70;99.90
18906;DHT22;9585;51.018;4.282;2022-11-23T04:06:10;7.70;99.90
18906;DHT22;9585;51.018;4.282;2022-11-23T04:08:37;7.70;99.90
18906;DHT22;9585;51.018;4.282;2022-11-23T04:11:06;7.70;99.90
18906;DHT22;9585;51.018;4.282;2022-11-23T04:13:33;7.70;99.90
18906;DHT22;9585;51.018;4.282;2022-11-23T04:16:01;7.70;99.90
18906;DHT22;9585;51.018;4.282;2022-11-23T04:18:28;7.70;99.90
18906;DHT22;9585;51.018;4.282;2022-11-23T04:20:55;7.60;99.90
18906;DHT22;9585;51.018;4.282;2022-11-23T04:23:23;7.60;99.90
18906;DHT22;9585;51.018;4.282;2022-11-23T04:25:50;7.60;99.90
18906;DHT22;9585;51.018;4.282;2022-11-23T04:28:19;7.70;99.90
18906;DHT22;9585;51.018;4.282;2022-11-23T04:30:46;7.70;99.90
18906;DHT22;9585;51.018;4.282;2022-11-23T04:33:14;7.60;99.90
18906;DHT22;9585;51.018;4.282;2022-11-23T04:35:41;7.70;99.90
18906;DHT22;9585;51.018;4.282;2022-11-23T04:38:08;7.70;99.90
18906;DHT22;9585;51.018;4.282;2022-11-23T04:40:36;7.70;99.90
18906;DHT22;9585;51.018;4.282;2022-11-23T04:43:04;7.70;99.90
18906;DHT22;9585;51.018;4.282;2022-11-23T04:45:37;7.70;99.90
18906;DHT22;9585;51.018;4.282;2022-11-23T04:48:05;7.70;99.90
18906;DHT22;9585;51.018;4.282;2022-11-23T04:50:32;7.70;99.90
18906;DHT22;9585;51.018;4.282;2022-11-23T04:53:00;7.70;99.90
18906;DHT22;9585;51.018;4.282;2022-11-23T04:55:27;7.70;99.90
18906;DHT22;9585;51.018;4.282;2022-11-23T04:57:55;7.60;99.90
18906;DHT22;9585;51.018;4.282;2022-11-23T05:00:22;7.70;99.90
18906;DHT22;9585;51.018;4.282;2022-11-23T05:02:51;7.70;99.90
18906;DHT22;9585;51.018;4.282;2022-11-23T05:05:18;7.70;99.90
18906;DHT22;9585;51.018;4.282;2022-11-23T05:07:46;7.70;99.90
18906;DHT22;9585;51.018;4.282;2022-11-23T05:10:13;7.70;99.90
18906;DHT22;9585;51.018;4.282;2022-11-23T05:12:41;7.70;99.90
18906;DHT22;9585;51.018;4.282;2022-11-23T05:15:11;7.70;99.90
18906;DHT22;9585;51.018;4.282;2022-11-23T05:17:39;7.70;99.90
18906;DHT22;9585;51.018;4.282;2022-11-23T05:20:09;7.70;99.90
18906;DHT22;9585;51.018;4.282;2022-11-23T05:22:38;7.70;99.90
18906;DHT22;9585;51.018;4.282;2022-11-23T05:25:07;7.70;99.90
18906;DHT22;9585;51.018;4.282;2022-11-23T05:27:34;7.70;99.90
18906;DHT22;9585;51.018;4.282;2022-11-23T05:30:03;7.70;99.90
18906;DHT22;9585;51.018;4.282;2022-11-23T05:32:30;7.60;99.90
18906;DHT22;9585;51.018;4.282;2022-11-23T05:35:00;7.60;99.90
18906;DHT22;9585;51.018;4.282;2022-11-23T05:37:29;7.50;99.90
18906;DHT22;9585;51.018;4.282;2022-11-23T05:39:56;7.50;99.90
18906;DHT22;9585;51.018;4.282;2022-11-23T05:42:24;7.50;99.90
18906;DHT22;9585;51.018;4.282;2022-11-23T05:44:51;7.50;99.90
18906;DHT22;9585;51.018;4.282;2022-11-23T05:47:19;7.40;99.90
18906;DHT22;9585;51.018;4.282;2022-11-23T05:49:46;7.40;99.90
18906;DHT22;9585;51.018;4.282;2022-11-23T05:52:14;7.30;99.90
18906;DHT22;9585;51.018;4.282;2022-11-23T05:54:42;7.30;99.90
18906;DHT22;9585;51.018;4.282;2022-11-23T05:57:09;7.20;99.90
18906;DHT22;9585;51.018;4.282;2022-11-23T05:59:37;7.10;99.90
18906;DHT22;9585;51.018;4.282;2022-11-23T06:02:04;7.10;99.90
18906;DHT22;9585;51.018;4.282;2022-11-23T06:04:31;7.00;99.90
18906;DHT22;9585;51.018;4.282;2022-11-23T06:06:59;7.00;99.90
18906;DHT22;9585;51.018;4.282;2022-11-23T06:09:26;6.90;99.90
18906;DHT22;9585;51.018;4.282;2022-11-23T06:11:55;6.80;99.90
18906;DHT22;9585;51.018;4.282;2022-11-23T06:14:22;6.70;99.90
18906;DHT22;9585;51.018;4.282;2022-11-23T06:16:50;6.70;99.90
18906;DHT22;9585;51.018;4.282;2022-11-23T06:19:17;6.60;99.90
18906;DHT22;9585;51.018;4.282;2022-11-23T06:21:48;6.50;99.90
18906;DHT22;9585;51.018;4.282;2022-11-23T06:24:24;6.50;99.90
18906;DHT22;9585;51.018;4.282;2022-11-23T06:26:52;6.40;99.90
18906;DHT22;9585;51.018;4.282;2022-11-23T06:29:21;6.30;99.90
18906;DHT22;9585;51.018;4.282;2022-11-23T06:31:49;6.30;99.90
18906;DHT22;9585;51.018;4.282;2022-11-23T06:34:16;6.30;99.90
18906;DHT22;9585;51.018;4.282;2022-11-23T06:36:43;6.20;99.90
18906;DHT22;9585;51.018;4.282;2022-11-23T06:39:10;6.20;99.90
18906;DHT22;9585;51.018;4.282;2022-11-23T06:41:38;6.10;99.90
18906;DHT22;9585;51.018;4.282;2022-11-23T06:44:05;6.10;99.90
18906;DHT22;9585;51.018;4.282;2022-11-23T06:46:34;6.10;99.90
18906;DHT22;9585;51.018;4.282;2022-11-23T06:49:01;6.10;99.90
18906;DHT22;9585;51.018;4.282;2022-11-23T06:51:28;6.10;99.90
18906;DHT22;9585;51.018;4.282;2022-11-23T06:53:56;6.00;99.90
18906;DHT22;9585;51.018;4.282;2022-11-23T06:56:24;6.00;99.90
18906;DHT22;9585;51.018;4.282;2022-11-23T06:58:52;5.90;99.90
18906;DHT22;9585;51.018;4.282;2022-11-23T07:01:19;5.90;99.90
18906;DHT22;9585;51.018;4.282;2022-11-23T07:03:48;5.80;99.90
18906;DHT22;9585;51.018;4.282;2022-11-23T07:06:15;5.80;99.90
18906;DHT22;9585;51.018;4.282;2022-11-23T07:08:42;5.80;99.90
18906;DHT22;9585;51.018;4.282;2022-11-23T07:11:11;5.80;99.90
18906;DHT22;9585;51.018;4.282;2022-11-23T07:13:38;5.80;99.90
18906;DHT22;9585;51.018;4.282;2022-11-23T07:16:06;5.80;99.90
18906;DHT22;9585;51.018;4.282;2022-11-23T07:18:34;5.80;99.90
18906;DHT22;9585;51.018;4.282;2022-11-23T07:21:03;5.80;99.90
18906;DHT22;9585;51.018;4.282;2022-11-23T07:23:30;5.80;99.90
18906;DHT22;9585;51.018;4.282;2022-11-23T07:25:57;5.80;99.90
18906;DHT22;9585;51.018;4.282;2022-11-23T07:28:24;5.80;99.90
18906;DHT22;9585;51.018;4.282;2022-11-23T07:30:51;5.80;99.90
18906;DHT22;9585;51.018;4.282;2022-11-23T07:33:19;5.70;99.90
18906;DHT22;9585;51.018;4.282;2022-11-23T07:35:49;5.80;99.90
18906;DHT22;9585;51.018;4.282;2022-11-23T07:38:18;5.80;99.90
18906;DHT22;9585;51.018;4.282;2022-11-23T07:40:48;5.80;99.90
18906;DHT22;9585;51.018;4.282;2022-11-23T07:43:16;5.80;99.90
18906;DHT22;9585;51.018;4.282;2022-11-23T07:45:44;5.80;99.90
18906;DHT22;9585;51.018;4.282;2022-11-23T07:48:11;5.90;99.90
18906;DHT22;9585;51.018;4.282;2022-11-23T07:50:38;5.90;99.90
18906;DHT22;9585;51.018;4.282;2022-11-23T07:53:06;5.90;99.90
18906;DHT22;9585;51.018;4.282;2022-11-23T07:55:35;6.00;99.90
18906;DHT22;9585;51.018;4.282;2022-11-23T07:58:02;6.10;99.90
18906;DHT22;9585;51.018;4.282;2022-11-23T08:00:30;6.10;99.90
18906;DHT22;9585;51.018;4.282;2022-11-23T08:02:59;6.10;99.90
18906;DHT22;9585;51.018;4.282;2022-11-23T08:05:27;6.10;99.90
18906;DHT22;9585;51.018;4.282;2022-11-23T08:07:57;6.20;99.90
18906;DHT22;9585;51.018;4.282;2022-11-23T08:10:25;6.20;99.90
18906;DHT22;9585;51.018;4.282;2022-11-23T08:12:56;6.30;99.90
18906;DHT22;9585;51.018;4.282;2022-11-23T08:15:23;6.40;99.90
18906;DHT22;9585;51.018;4.282;2022-11-23T08:17:54;6.40;99.90
18906;DHT22;9585;51.018;4.282;2022-11-23T08:20:22;6.50;99.90
18906;DHT22;9585;51.018;4.282;2022-11-23T08:22:49;6.50;99.90
18906;DHT22;9585;51.018;4.282;2022-11-23T08:25:16;6.50;99.90
18906;DHT22;9585;51.018;4.282;2022-11-23T08:27:44;6.50;99.90
18906;DHT22;9585;51.018;4.282;2022-11-23T08:30:14;6.50;99.90
18906;DHT22;9585;51.018;4.282;2022-11-23T08:32:41;6.60;99.90
18906;DHT22;9585;51.018;4.282;2022-11-23T08:35:09;6.60;99.90
18906;DHT22;9585;51.018;4.282;2022-11-23T08:37:36;6.70;99.90
18906;DHT22;9585;51.018;4.282;2022-11-23T08:40:04;6.80;99.90
18906;DHT22;9585;51.018;4.282;2022-11-23T08:42:34;6.80;99.90
18906;DHT22;9585;51.018;4.282;2022-11-23T08:45:01;6.90;99.90
18906;DHT22;9585;51.018;4.282;2022-11-23T08:47:33;6.90;99.90
18906;DHT22;9585;51.018;4.282;2022-11-23T08:50:00;6.90;99.90
18906;DHT22;9585;51.018;4.282;2022-11-23T08:52:27;6.80;99.90
18906;DHT22;9585;51.018;4.282;2022-11-23T08:54:55;6.70;99.90
18906;DHT22;9585;51.018;4.282;2022-11-23T08:57:22;6.60;99.90
18906;DHT22;9585;51.018;4.282;2022-11-23T08:59:53;6.60;99.90
18906;DHT22;9585;51.018;4.282;2022-11-23T09:02:21;6.70;99.90
18906;DHT22;9585;51.018;4.282;2022-11-23T09:04:50;6.80;99.90
18906;DHT22;9585;51.018;4.282;2022-11-23T09:07:17;7.00;99.90
18906;DHT22;9585;51.018;4.282;2022-11-23T09:09:45;7.20;99.90
18906;DHT22;9585;51.018;4.282;2022-11-23T09:12:12;7.40;99.90
18906;DHT22;9585;51.018;4.282;2022-11-23T09:14:40;7.40;99.90
18906;DHT22;9585;51.018;4.282;2022-11-23T09:17:07;7.40;99.90
18906;DHT22;9585;51.018;4.282;2022-11-23T09:19:34;7.40;99.90
18906;DHT22;9585;51.018;4.282;2022-11-23T09:22:03;7.40;99.90
18906;DHT22;9585;51.018;4.282;2022-11-23T09:24:31;7.50;99.90
18906;DHT22;9585;51.018;4.282;2022-11-23T09:26:58;7.60;99.90
18906;DHT22;9585;51.018;4.282;2022-11-23T09:29:28;7.60;99.90
18906;DHT22;9585;51.018;4.282;2022-11-23T09:31:56;7.60;99.90
18906;DHT22;9585;51.018;4.282;2022-11-23T09:34:29;7.60;99.90
18906;DHT22;9585;51.018;4.282;2022-11-23T09:36:57;7.50;99.90
18906;DHT22;9585;51.018;4.282;2022-11-23T09:39:26;7.50;99.90
18906;DHT22;9585;51.018;4.282;2022-11-23T09:42:10;7.60;99.90
18906;DHT22;9585;51.018;4.282;2022-11-23T09:47:47;7.70;99.90
18906;DHT22;9585;51.018;4.282;2022-11-23T09:50:26;7.90;99.90
18906;DHT22;9585;51.018;4.282;2022-11-23T09:52:56;8.10;99.90
18906;DHT22;9585;51.018;4.282;2022-11-23T09:55:36;8.10;99.90
18906;DHT22;9585;51.018;4.282;2022-11-23T09:58:05;8.10;99.90
18906;DHT22;9585;51.018;4.282;2022-11-23T10:00:37;8.20;99.90
18906;DHT22;9585;51.018;4.282;2022-11-23T10:03:08;8.20;99.90
18906;DHT22;9585;51.018;4.282;2022-11-23T10:05:40;8.20;99.90
18906;DHT22;9585;51.018;4.282;2022-11-23T10:08:22;8.30;99.90
18906;DHT22;9585;51.018;4.282;2022-11-23T10:11:06;8.10;99.90
18906;DHT22;9585;51.018;4.282;2022-11-23T10:13:45;8.00;99.90
18906;DHT22;9585;51.018;4.282;2022-11-23T10:16:36;7.90;99.90
18906;DHT22;9585;51.018;4.282;2022-11-23T10:19:14;7.90;99.90
18906;DHT22;9585;51.018;4.282;2022-11-23T10:22:11;8.00;99.90
18906;DHT22;9585;51.018;4.282;2022-11-23T10:24:45;8.00;99.90
18906;DHT22;9585;51.018;4.282;2022-11-23T10:27:18;8.10;99.90
18906;DHT22;9585;51.018;4.282;2022-11-23T10:29:46;8.00;99.90
18906;DHT22;9585;51.018;4.282;2022-11-23T10:32:23;8.00;99.90
18906;DHT22;9585;51.018;4.282;2022-11-23T10:34:58;7.80;99.90
18906;DHT22;9585;51.018;4.282;2022-11-23T10:37:28;8.00;99.90
18906;DHT22;9585;51.018;4.282;2022-11-23T10:39:56;8.20;99.90
18906;DHT22;9585;51.018;4.282;2022-11-23T10:42:31;8.20;99.90
18906;DHT22;9585;51.018;4.282;2022-11-23T10:45:04;8.50;99.90
18906;DHT22;9585;51.018;4.282;2022-11-23T10:47:39;8.60;99.90
18906;DHT22;9585;51.018;4.282;2022-11-23T10:50:25;8.60;99.90
18906;DHT22;9585;51.018;4.282;2022-11-23T10:52:58;8.60;99.90
18906;DHT22;9585;51.018;4.282;2022-11-23T10:55:28;8.60;99.90
18906;DHT22;9585;51.018;4.282;2022-11-23T10:58:31;8.60;99.90
18906;DHT22;9585;51.018;4.282;2022-11-23T11:01:01;8.60;99.90
18906;DHT22;9585;51.018;4.282;2022-11-23T11:03:30;8.60;99.90
18906;DHT22;9585;51.018;4.282;2022-11-23T11:06:00;8.60;99.90
18906;DHT22;9585;51.018;4.282;2022-11-23T11:08:30;8.60;99.90
18906;DHT22;9585;51.018;4.282;2022-11-23T11:10:59;8.50;99.90
18906;DHT22;9585;51.018;4.282;2022-11-23T11:13:31;8.60;99.90
18906;DHT22;9585;51.018;4.282;2022-11-23T11:16:00;8.70;99.90
18906;DHT22;9585;51.018;4.282;2022-11-23T11:18:30;8.70;99.90
18906;DHT22;9585;51.018;4.282;2022-11-23T11:21:02;8.80;99.90
18906;DHT22;9585;51.018;4.282;2022-11-23T11:23:40;8.60;99.90
18906;DHT22;9585;51.018;4.282;2022-11-23T11:26:15;8.40;99.90
18906;DHT22;9585;51.018;4.282;2022-11-23T11:28:49;8.30;99.90
18906;DHT22;9585;51.018;4.282;2022-11-23T11:31:31;8.40;99.90
18906;DHT22;9585;51.018;4.282;2022-11-23T11:34:13;8.50;99.90
18906;DHT22;9585;51.018;4.282;2022-11-23T11:36:47;8.60;99.90
18906;DHT22;9585;51.018;4.282;2022-11-23T11:39:23;8.80;99.90
18906;DHT22;9585;51.018;4.282;2022-11-23T11:41:55;8.80;99.90
18906;DHT22;9585;51.018;4.282;2022-11-23T11:44:32;9.00;99.90
18906;DHT22;9585;51.018;4.282;2022-11-23T11:47:09;9.00;99.90
18906;DHT22;9585;51.018;4.282;2022-11-23T11:49:45;9.00;99.90
18906;DHT22;9585;51.018;4.282;2022-11-23T11:52:17;9.10;99.90
18906;DHT22;9585;51.018;4.282;2022-11-23T11:55:00;9.00;99.90
18906;DHT22;9585;51.018;4.282;2022-11-23T11:57:34;9.00;99.90
18906;DHT22;9585;51.018;4.282;2022-11-23T12:00:09;9.00;99.90
18906;DHT22;9585;51.018;4.282;2022-11-23T12:02:41;9.10;99.90
18906;DHT22;9585;51.018;4.282;2022-11-23T12:05:20;8.80;99.90
18906;DHT22;9585;51.018;4.282;2022-11-23T12:07:56;8.80;99.90
18906;DHT22;9585;51.018;4.282;2022-11-23T12:10:32;8.80;99.90
18906;DHT22;9585;51.018;4.282;2022-11-23T12:13:03;8.90;99.90
18906;DHT22;9585;51.018;4.282;2022-11-23T12:15:39;8.90;99.90
18906;DHT22;9585;51.018;4.282;2022-11-23T12:18:20;9.00;99.90
18906;DHT22;9585;51.018;4.282;2022-11-23T12:20:55;9.10;99.90
18906;DHT22;9585;51.018;4.282;2022-11-23T12:23:38;9.20;99.90
18906;DHT22;9585;51.018;4.282;2022-11-23T12:26:16;9.10;99.90
18906;DHT22;9585;51.018;4.282;2022-11-23T12:29:19;9.10;99.90
18906;DHT22;9585;51.018;4.282;2022-11-23T12:32:05;9.00;99.90
18906;DHT22;9585;51.018;4.282;2022-11-23T12:34:57;8.90;99.90
18906;DHT22;9585;51.018;4.282;2022-11-23T12:37:38;8.80;99.90
18906;DHT22;9585;51.018;4.282;2022-11-23T12:40:22;8.90;99.90
18906;DHT22;9585;51.018;4.282;2022-11-23T12:43:00;8.90;99.90
18906;DHT22;9585;51.018;4.282;2022-11-23T12:45:43;8.80;99.90
18906;DHT22;9585;51.018;4.282;2022-11-23T12:48:31;8.70;99.90
18906;DHT22;9585;51.018;4.282;2022-11-23T12:51:08;8.70;99.90
18906;DHT22;9585;51.018;4.282;2022-11-23T12:53:48;8.60;99.90
18906;DHT22;9585;51.018;4.282;2022-11-23T12:56:25;8.60;99.90
18906;DHT22;9585;51.018;4.282;2022-11-23T12:58:55;8.50;99.90
18906;DHT22;9585;51.018;4.282;2022-11-23T13:01:26;8.50;99.90
18906;DHT22;9585;51.018;4.282;2022-11-23T13:07:34;8.40;99.90
18906;DHT22;9585;51.018;4.282;2022-11-23T13:13:28;8.40;99.90
18906;DHT22;9585;51.018;4.282;2022-11-23T13:16:15;8.30;99.90
18906;DHT22;9585;51.018;4.282;2022-11-23T13:18:59;8.30;99.90
18906;DHT22;9585;51.018;4.282;2022-11-23T13:21:32;8.30;99.90
18906;DHT22;9585;51.018;4.282;2022-11-23T13:24:23;8.20;99.90
18906;DHT22;9585;51.018;4.282;2022-11-23T13:30:25;8.10;99.90
18906;DHT22;9585;51.018;4.282;2022-11-23T13:32:58;8.10;99.90
18906;DHT22;9585;51.018;4.282;2022-11-23T13:35:50;8.10;99.90
18906;DHT22;9585;51.018;4.282;2022-11-23T13:38:36;8.10;99.90
18906;DHT22;9585;51.018;4.282;2022-11-23T13:44:31;8.20;99.90
18906;DHT22;9585;51.018;4.282;2022-11-23T13:47:06;8.10;99.90
18906;DHT22;9585;51.018;4.282;2022-11-23T13:49:40;8.10;99.90
18906;DHT22;9585;51.018;4.282;2022-11-23T13:52:32;8.00;99.90
18906;DHT22;9585;51.018;4.282;2022-11-23T13:55:08;7.90;99.90
18906;DHT22;9585;51.018;4.282;2022-11-23T14:01:00;7.90;99.90
18906;DHT22;9585;51.018;4.282;2022-11-23T14:03:50;7.90;99.90
18906;DHT22;9585;51.018;4.282;2022-11-23T14:06:40;7.90;99.90
18906;DHT22;9585;51.018;4.282;2022-11-23T14:09:20;7.80;99.90
18906;DHT22;9585;51.018;4.282;2022-11-23T14:11:59;7.70;99.90
18906;DHT22;9585;51.018;4.282;2022-11-23T14:14:32;7.80;99.90
18906;DHT22;9585;51.018;4.282;2022-11-23T14:20:25;7.70;99.90
18906;DHT22;9585;51.018;4.282;2022-11-23T14:23:17;7.80;99.90
18906;DHT22;9585;51.018;4.282;2022-11-23T14:25:54;7.60;99.90
18906;DHT22;9585;51.018;4.282;2022-11-23T14:28:36;7.60;99.90
18906;DHT22;9585;51.018;4.282;2022-11-23T14:31:15;7.60;99.90
18906;DHT22;9585;51.018;4.282;2022-11-23T14:33:55;7.50;99.90
18906;DHT22;9585;51.018;4.282;2022-11-23T14:36:36;7.60;99.90
18906;DHT22;9585;51.018;4.282;2022-11-23T14:39:47;7.60;99.90
18906;DHT22;9585;51.018;4.282;2022-11-23T14:42:24;7.60;99.90
18906;DHT22;9585;51.018;4.282;2022-11-23T14:44:53;7.60;99.90
18906;DHT22;9585;51.018;4.282;2022-11-23T14:47:25;7.70;99.90
18906;DHT22;9585;51.018;4.282;2022-11-23T14:49:55;7.70;99.90
18906;DHT22;9585;51.018;4.282;2022-11-23T14:52:24;7.70;99.90
18906;DHT22;9585;51.018;4.282;2022-11-23T14:55:05;7.80;99.90
18906;DHT22;9585;51.018;4.282;2022-11-23T14:57:41;7.80;99.90
18906;DHT22;9585;51.018;4.282;2022-11-23T15:00:24;7.80;99.90
18906;DHT22;9585;51.018;4.282;2022-11-23T15:02:54;7.80;99.90
18906;DHT22;9585;51.018;4.282;2022-11-23T15:05:26;7.80;99.90
18906;DHT22;9585;51.018;4.282;2022-11-23T15:07:59;7.90;99.90
18906;DHT22;9585;51.018;4.282;2022-11-23T15:10:39;7.80;99.90
18906;DHT22;9585;51.018;4.282;2022-11-23T15:13:18;7.90;99.90
18906;DHT22;9585;51.018;4.282;2022-11-23T15:15:48;7.90;99.90
18906;DHT22;9585;51.018;4.282;2022-11-23T15:18:35;7.90;99.90
18906;DHT22;9585;51.018;4.282;2022-11-23T15:21:18;8.00;99.90
18906;DHT22;9585;51.018;4.282;2022-11-23T15:23:47;8.00;99.90
18906;DHT22;9585;51.018;4.282;2022-11-23T15:26:17;7.90;99.90
18906;DHT22;9585;51.018;4.282;2022-11-23T15:28:46;7.90;99.90
18906;DHT22;9585;51.018;4.282;2022-11-23T15:31:26;7.90;99.90
18906;DHT22;9585;51.018;4.282;2022-11-23T15:33:56;8.00;99.90
18906;DHT22;9585;51.018;4.282;2022-11-23T15:36:31;7.90;99.90
18906;DHT22;9585;51.018;4.282;2022-11-23T15:39:01;7.90;99.90
18906;DHT22;9585;51.018;4.282;2022-11-23T15:41:33;7.80;99.90
18906;DHT22;9585;51.018;4.282;2022-11-23T15:44:01;7.80;99.90
18906;DHT22;9585;51.018;4.282;2022-11-23T15:46:40;7.80;99.90
18906;DHT22;9585;51.018;4.282;2022-11-23T15:49:12;7.70;99.90
18906;DHT22;9585;51.018;4.282;2022-11-23T15:51:43;7.70;99.90
18906;DHT22;9585;51.018;4.282;2022-11-23T15:54:15;7.60;99.90
18906;DHT22;9585;51.018;4.282;2022-11-23T15:56:44;7.50;99.90
18906;DHT22;9585;51.018;4.282;2022-11-23T15:59:27;7.40;99.90
18906;DHT22;9585;51.018;4.282;2022-11-23T16:02:03;7.30;99.90
18906;DHT22;9585;51.018;4.282;2022-11-23T16:04:36;7.30;99.90
18906;DHT22;9585;51.018;4.282;2022-11-23T16:07:17;7.30;99.90
18906;DHT22;9585;51.018;4.282;2022-11-23T16:09:46;7.30;99.90
18906;DHT22;9585;51.018;4.282;2022-11-23T16:12:25;7.30;99.90
18906;DHT22;9585;51.018;4.282;2022-11-23T16:14:58;7.30;99.90
18906;DHT22;9585;51.018;4.282;2022-11-23T16:17:44;7.20;99.90
18906;DHT22;9585;51.018;4.282;2022-11-23T16:20:13;7.10;99.90
18906;DHT22;9585;51.018;4.282;2022-11-23T16:22:47;7.10;99.90
18906;DHT22;9585;51.018;4.282;2022-11-23T16:25:24;7.10;99.90
18906;DHT22;9585;51.018;4.282;2022-11-23T16:27:57;7.10;99.90
18906;DHT22;9585;51.018;4.282;2022-11-23T16:30:26;7.10;99.90
18906;DHT22;9585;51.018;4.282;2022-11-23T16:32:57;7.10;99.90
18906;DHT22;9585;51.018;4.282;2022-11-23T16:35:24;7.10;99.90
18906;DHT22;9585;51.018;4.282;2022-11-23T16:37:53;7.10;99.90
18906;DHT22;9585;51.018;4.282;2022-11-23T16:40:21;7.10;99.90
18906;DHT22;9585;51.018;4.282;2022-11-23T16:42:50;7.00;99.90
18906;DHT22;9585;51.018;4.282;2022-11-23T16:45:18;7.00;99.90
18906;DHT22;9585;51.018;4.282;2022-11-23T16:47:55;7.00;99.90
18906;DHT22;9585;51.018;4.282;2022-11-23T16:50:26;7.00;99.90
18906;DHT22;9585;51.018;4.282;2022-11-23T16:53:15;7.00;99.90